createdAt,value
2023-02-03T00:03:25.586Z,3.47
2023-02-03T00:13:48.290Z,3.53
2023-02-03T00:24:11.022Z,2.75
2023-02-03T00:34:32.688Z,2.90
2023-02-03T00:44:56.598Z,3.47
2023-02-03T00:55:19.869Z,3.53
2023-02-03T01:05:44.577Z,4.07
2023-02-03T01:16:09.031Z,5.40
2023-02-03T01:26:37.181Z,5.50
2023-02-03T01:37:03.130Z,4.70
2023-02-03T01:47:58.357Z,4.53
2023-02-03T01:58:39.357Z,5.15
2023-02-03T02:09:13.371Z,4.78
2023-02-03T02:20:07.726Z,3.55
2023-02-03T02:30:55.725Z,4.22
2023-02-03T02:41:24.559Z,4.38
2023-02-03T02:51:49.699Z,3.13
2023-02-03T03:02:24.508Z,3.25
2023-02-03T03:12:50.976Z,2.42
2023-02-03T03:23:23.758Z,2.40
2023-02-03T03:33:47.989Z,2.03
2023-02-03T03:44:16.972Z,1.93
2023-02-03T03:54:41.097Z,1.93
2023-02-03T04:05:05.512Z,3.03
2023-02-03T04:15:27.325Z,3.28
2023-02-03T04:25:50.373Z,2.70
2023-02-03T04:36:11.690Z,4.65
2023-02-03T04:46:41.921Z,5.28
2023-02-03T04:57:17.258Z,7.90
2023-02-03T05:08:30.798Z,9.48
2023-02-03T05:18:58.954Z,7.18
2023-02-03T05:29:29.999Z,8.10
2023-02-03T05:40:22.416Z,10.18
2023-02-03T05:50:48.109Z,12.20
2023-02-03T06:01:11.678Z,12.57
2023-02-03T06:11:35.930Z,17.05
2023-02-03T06:22:04.507Z,10.85
2023-02-03T06:32:27.473Z,15.07
2023-02-03T06:42:50.798Z,17.33
2023-02-03T06:53:14.894Z,12.88
2023-02-03T07:03:48.960Z,11.55
2023-02-03T07:14:29.472Z,18.52
2023-02-03T07:24:51.447Z,18.52
2023-02-03T07:35:26.610Z,16.00
2023-02-03T07:57:01.358Z,14.02
2023-02-03T08:07:48.786Z,14.88
2023-02-03T08:18:24.754Z,15.38
2023-02-03T08:28:52.861Z,9.52
2023-02-03T08:50:23.541Z,11.07
2023-02-03T09:01:14.518Z,8.88
2023-02-03T09:11:40.436Z,7.53
2023-02-03T09:22:06.266Z,7.23
2023-02-03T09:32:31.352Z,9.38
2023-02-03T09:43:03.417Z,6.95
2023-02-03T09:53:30.410Z,5.85
2023-02-03T10:04:08.871Z,7.35
2023-02-03T10:14:55.540Z,6.70
2023-02-03T10:25:27.125Z,6.40
2023-02-03T10:36:04.566Z,4.85
2023-02-03T10:47:20.043Z,5.20
2023-02-03T10:57:22.705Z,3.83
2023-02-03T11:08:08.273Z,1.88
2023-02-03T11:18:59.886Z,1.67
2023-02-03T11:29:54.419Z,1.55
2023-02-03T11:41:11.901Z,2.83
2023-02-03T11:52:35.044Z,4.05
2023-02-03T12:03:21.660Z,3.00
2023-02-03T12:35:35.903Z,3.03
2023-02-03T12:46:32.450Z,4.18
2023-02-03T12:57:04.453Z,4.55
2023-02-03T13:19:41.277Z,3.63
2023-02-03T13:30:44.351Z,3.80
2023-02-03T13:41:12.318Z,2.13
2023-02-03T13:51:36.946Z,2.83
2023-02-03T14:02:40.498Z,3.50
2023-02-03T14:13:54.929Z,3.97
2023-02-03T14:25:00.578Z,3.28
2023-02-03T14:35:35.791Z,3.83
2023-02-03T14:46:42.844Z,3.63
2023-02-03T14:58:06.412Z,4.47
2023-02-03T15:09:49.509Z,3.65
2023-02-03T15:20:30.228Z,4.35
2023-02-03T15:30:59.474Z,4.03
2023-02-03T15:41:24.135Z,2.92
2023-02-03T15:51:57.300Z,4.43
2023-02-03T16:02:31.650Z,3.78
2023-02-03T16:12:58.689Z,3.00
2023-02-03T16:26:15.620Z,4.47
2023-02-03T16:35:18.310Z,3.80
2023-02-03T16:45:57.356Z,6.38
2023-02-03T16:56:27.920Z,4.78
2023-02-03T17:06:52.247Z,4.63
2023-02-03T17:17:34.851Z,4.72
2023-02-03T17:27:57.855Z,7.07
2023-02-03T17:38:21.111Z,4.20
